»·PEaware :: N62406 KWJF-KVCV

N62406 :: KWJF-KVCV

FLIGHT INFORMATION

Flight Status: Arrived
Operator: Privately registered:
United States
More flights under this callsign
Pilot: Jair P. (32054)
Aircraft: CESSNA 152 AEROBAT
(C152)
More flights by this aircraft type
Origin: KWJF Gen Fox
United States
Destination: KVCV Socal Logistics
United States
More flights between these airports :: More routes between these airports
Route:
File this flight plan on PilotEdge
Remarks:
Altitude:
(Current/Filed)
5,500ft
Speed:
(Current/Filed)
80kts
Departed: 08-Nov-20 10:26 AM
Arrived: 08-Nov-20 11:08 AM
Distance/Time
Traveled:
43nm/0:42
Distance/Time
To Go:
Arrived

Flight Plot

Page will automatically refresh every two minutes.


Map Options




Map Legend


Flown Route
Filed Route
Departure Airport
Arrival Airport
Navaid (VOR, NDB)
Fix

Horizontal Profiles

Position Reports

Time Latitude Longitude Heading Altitude Ground
Speed
08-Nov-20 09:59 34.739764 -118.215914 159 2343ft 0kts
08-Nov-20 10:00 34.739764 -118.215914 159 2343ft 0kts
08-Nov-20 10:01 34.739764 -118.215914 159 2343ft 0kts
08-Nov-20 10:02 34.739764 -118.215914 159 2343ft 0kts
08-Nov-20 10:03 34.739764 -118.215914 159 2343ft 0kts
08-Nov-20 10:04 34.739764 -118.215914 159 2343ft 0kts
08-Nov-20 10:05 34.739764 -118.215914 159 2343ft 0kts
08-Nov-20 10:06 34.739764 -118.215914 159 2343ft 0kts
08-Nov-20 10:07 34.739764 -118.215914 159 2343ft 0kts
08-Nov-20 10:08 34.739764 -118.215914 159 2343ft 0kts
08-Nov-20 10:09 34.739764 -118.215914 159 2343ft 0kts
08-Nov-20 10:10 34.739764 -118.215914 159 2343ft 0kts
08-Nov-20 10:11 34.739764 -118.215914 159 2343ft 0kts
08-Nov-20 10:12 34.739764 -118.215914 159 2343ft 0kts
08-Nov-20 10:13 34.739764 -118.215914 159 2343ft 0kts
08-Nov-20 10:14 34.739764 -118.215914 159 2343ft 0kts
08-Nov-20 10:15 34.739764 -118.215914 159 2343ft 0kts
08-Nov-20 10:16 34.739764 -118.215914 159 2343ft 0kts
08-Nov-20 10:17 34.739764 -118.215914 159 2343ft 0kts
08-Nov-20 10:18 34.739764 -118.215914 159 2343ft 0kts
08-Nov-20 10:19 34.739764 -118.215914 159 2343ft 0kts
08-Nov-20 10:20 34.740182 -118.216331 337 2342ft 4kts
08-Nov-20 10:21 34.742039 -118.211305 69 2341ft 32kts
08-Nov-20 10:22 34.743535 -118.207086 313 2336ft 0kts
08-Nov-20 10:23 34.743535 -118.207086 313 2336ft 0kts
08-Nov-20 10:24 34.743603 -118.207168 316 2335ft 6kts
08-Nov-20 10:25 34.739714 -118.222976 246 2592ft 71kts
08-Nov-20 10:26 34.731493 -118.243315 241 3251ft 71kts
08-Nov-20 10:27 34.719448 -118.257677 142 3846ft 84kts
08-Nov-20 10:28 34.720653 -118.226293 75 4319ft 100kts
08-Nov-20 10:29 34.730271 -118.193779 66 4777ft 103kts
08-Nov-20 10:30 34.721203 -118.166962 126 5316ft 91kts
08-Nov-20 10:31 34.708160 -118.138908 128 5590ft 106kts
08-Nov-20 10:32 34.692502 -118.107990 132 5664ft 107kts
08-Nov-20 10:33 34.671308 -118.083834 149 5724ft 103kts
08-Nov-20 10:34 34.646583 -118.066815 166 5773ft 100kts
08-Nov-20 10:35 34.623989 -118.047192 126 5854ft 105kts
08-Nov-20 10:36 34.622098 -118.013494 74 6077ft 112kts
08-Nov-20 10:37 34.619639 -117.976494 114 6064ft 113kts
08-Nov-20 10:38 34.618633 -117.938053 102 6099ft 114kts
08-Nov-20 10:39 34.616208 -117.899423 96 6135ft 115kts
08-Nov-20 10:40 34.616280 -117.860529 91 6107ft 117kts
08-Nov-20 10:41 34.617115 -117.821042 87 6024ft 120kts
08-Nov-20 10:42 34.620416 -117.780288 97 5809ft 120kts
08-Nov-20 10:43 34.617259 -117.740774 101 5736ft 116kts
08-Nov-20 10:44 34.613136 -117.701691 100 5617ft 119kts
08-Nov-20 10:45 34.614835 -117.661182 93 5475ft 119kts
08-Nov-20 10:46 34.615767 -117.620973 92 5389ft 116kts
08-Nov-20 10:47 34.613040 -117.581978 106 5357ft 112kts
08-Nov-20 10:48 34.612044 -117.542954 90 5335ft 115kts
08-Nov-20 10:49 34.615378 -117.504408 87 5424ft 118kts
08-Nov-20 10:50 34.618573 -117.465736 89 5477ft 118kts
08-Nov-20 10:51 34.611096 -117.432318 173 5688ft 80kts
08-Nov-20 10:52 34.598236 -117.450545 273 5933ft 90kts
08-Nov-20 10:53 34.607165 -117.481034 291 6001ft 98kts
08-Nov-20 10:54 34.626022 -117.507092 314 5966ft 108kts
08-Nov-20 10:55 34.647101 -117.532207 315 5832ft 112kts
08-Nov-20 10:57 34.670113 -117.528794 113 5901ft 117kts
08-Nov-20 10:58 34.649615 -117.525525 238 5770ft 97kts
08-Nov-20 10:59 34.646502 -117.556806 289 5760ft 99kts
08-Nov-20 11:00 34.663315 -117.584126 307 5822ft 103kts
08-Nov-20 11:01 34.650929 -117.582093 111 5707ft 113kts
08-Nov-20 11:02 34.645232 -117.545737 106 5645ft 107kts
08-Nov-20 11:03 34.641642 -117.509610 101 5691ft 108kts
08-Nov-20 11:04 34.636265 -117.472368 108 5061ft 120kts
08-Nov-20 11:05 34.636253 -117.435388 88 3930ft 95kts
08-Nov-20 11:06 34.639374 -117.406168 90 3433ft 79kts
08-Nov-20 11:07 34.630520 -117.386051 182 3126ft 59kts
08-Nov-20 11:08 34.617215 -117.386787 189 2823ft 27kts
08-Nov-20 11:09 34.615969 -117.385001 89 2827ft 0kts
08-Nov-20 11:10 34.615969 -117.385001 89 2827ft 0kts
08-Nov-20 11:11 34.615969 -117.385001 89 2827ft 0kts
08-Nov-20 11:12 34.615964 -117.384772 97 2827ft 7kts
08-Nov-20 11:13 34.610967 -117.384174 181 2836ft 21kts
08-Nov-20 11:13 34.606827 -117.384149 179 2843ft 18kts
08-Nov-20 11:15 34.598415 -117.384054 182 2857ft 29kts
08-Nov-20 11:15 34.592377 -117.380848 135 2867ft 40kts
08-Nov-20 11:17 34.588928 -117.374062 141 2866ft 18kts
08-Nov-20 11:17 34.588785 -117.373919 131 2866ft 0kts
08-Nov-20 11:18 34.588785 -117.373919 131 2866ft 0kts
08-Nov-20 11:19 34.588785 -117.373919 131 2866ft 0kts
08-Nov-20 11:20 34.588785 -117.373919 131 2866ft 0kts
08-Nov-20 11:21 34.588785 -117.373919 131 2866ft 0kts

Navigation Log

Ident Type
Flight plan parsing failed, navigation log unavailable